sensor_id;sensor_type;location;lat;lon;timestamp;temperature;humidity
53208;DHT22;39093;52.788;6.940;2024-02-26T00:02:10;3.70;99.90
53208;DHT22;39093;52.788;6.940;2024-02-26T00:04:37;3.60;99.90
53208;DHT22;39093;52.788;6.940;2024-02-26T00:07:04;3.60;99.90
53208;DHT22;39093;52.788;6.940;2024-02-26T00:09:31;3.60;99.90
53208;DHT22;39093;52.788;6.940;2024-02-26T00:11:59;3.60;99.90
53208;DHT22;39093;52.788;6.940;2024-02-26T00:14:26;3.60;99.90
53208;DHT22;39093;52.788;6.940;2024-02-26T00:16:53;3.70;99.90
53208;DHT22;39093;52.788;6.940;2024-02-26T00:19:20;3.50;99.90
53208;DHT22;39093;52.788;6.940;2024-02-26T00:21:47;3.50;99.90
53208;DHT22;39093;52.788;6.940;2024-02-26T00:24:14;3.50;99.90
53208;DHT22;39093;52.788;6.940;2024-02-26T00:26:41;3.50;99.90
53208;DHT22;39093;52.788;6.940;2024-02-26T00:29:08;3.50;99.90
53208;DHT22;39093;52.788;6.940;2024-02-26T00:31:36;3.60;99.90
53208;DHT22;39093;52.788;6.940;2024-02-26T00:34:04;3.40;99.90
53208;DHT22;39093;52.788;6.940;2024-02-26T00:36:31;3.40;99.90
53208;DHT22;39093;52.788;6.940;2024-02-26T00:38:58;3.30;99.90
53208;DHT22;39093;52.788;6.940;2024-02-26T00:41:25;3.60;99.90
53208;DHT22;39093;52.788;6.940;2024-02-26T00:43:52;3.30;99.90
53208;DHT22;39093;52.788;6.940;2024-02-26T00:46:19;3.30;99.90
53208;DHT22;39093;52.788;6.940;2024-02-26T00:48:46;3.30;99.90
53208;DHT22;39093;52.788;6.940;2024-02-26T00:51:13;3.30;99.90
53208;DHT22;39093;52.788;6.940;2024-02-26T00:53:40;3.30;99.90
53208;DHT22;39093;52.788;6.940;2024-02-26T00:56:07;3.40;99.90
53208;DHT22;39093;52.788;6.940;2024-02-26T00:58:34;3.40;99.90
53208;DHT22;39093;52.788;6.940;2024-02-26T01:01:01;3.40;99.90
53208;DHT22;39093;52.788;6.940;2024-02-26T01:03:28;3.40;99.90
53208;DHT22;39093;52.788;6.940;2024-02-26T01:05:55;3.40;99.90
53208;DHT22;39093;52.788;6.940;2024-02-26T01:08:25;3.70;99.90
53208;DHT22;39093;52.788;6.940;2024-02-26T01:10:52;3.30;99.90
53208;DHT22;39093;52.788;6.940;2024-02-26T01:13:19;3.50;99.90
53208;DHT22;39093;52.788;6.940;2024-02-26T01:15:46;3.40;99.90
53208;DHT22;39093;52.788;6.940;2024-02-26T01:18:13;3.40;99.90
53208;DHT22;39093;52.788;6.940;2024-02-26T01:20:40;3.40;99.90
53208;DHT22;39093;52.788;6.940;2024-02-26T01:23:07;3.30;99.90
53208;DHT22;39093;52.788;6.940;2024-02-26T01:25:34;3.30;99.90
53208;DHT22;39093;52.788;6.940;2024-02-26T01:28:01;3.30;99.90
53208;DHT22;39093;52.788;6.940;2024-02-26T01:30:28;3.40;99.90
53208;DHT22;39093;52.788;6.940;2024-02-26T01:32:55;3.40;99.90
53208;DHT22;39093;52.788;6.940;2024-02-26T01:35:22;3.40;99.90
53208;DHT22;39093;52.788;6.940;2024-02-26T01:37:49;3.40;99.90
53208;DHT22;39093;52.788;6.940;2024-02-26T01:40:16;3.30;99.90
53208;DHT22;39093;52.788;6.940;2024-02-26T01:42:46;3.40;99.90
53208;DHT22;39093;52.788;6.940;2024-02-26T01:45:17;3.30;99.90
53208;DHT22;39093;52.788;6.940;2024-02-26T01:47:53;3.30;99.90
53208;DHT22;39093;52.788;6.940;2024-02-26T01:50:22;3.40;99.90
53208;DHT22;39093;52.788;6.940;2024-02-26T01:52:50;3.30;99.90
53208;DHT22;39093;52.788;6.940;2024-02-26T01:55:18;3.30;99.90
53208;DHT22;39093;52.788;6.940;2024-02-26T01:57:48;3.30;99.90
53208;DHT22;39093;52.788;6.940;2024-02-26T02:00:16;3.30;99.90
53208;DHT22;39093;52.788;6.940;2024-02-26T02:02:44;3.40;99.90
53208;DHT22;39093;52.788;6.940;2024-02-26T02:05:17;3.30;99.90
53208;DHT22;39093;52.788;6.940;2024-02-26T02:07:45;3.40;99.90
53208;DHT22;39093;52.788;6.940;2024-02-26T02:10:13;3.30;99.90
53208;DHT22;39093;52.788;6.940;2024-02-26T02:12:41;3.30;99.90
53208;DHT22;39093;52.788;6.940;2024-02-26T02:15:08;3.30;99.90
53208;DHT22;39093;52.788;6.940;2024-02-26T02:17:35;3.30;99.90
53208;DHT22;39093;52.788;6.940;2024-02-26T02:20:02;3.20;99.90
53208;DHT22;39093;52.788;6.940;2024-02-26T02:22:30;3.30;99.90
53208;DHT22;39093;52.788;6.940;2024-02-26T02:24:59;3.20;99.90
53208;DHT22;39093;52.788;6.940;2024-02-26T02:27:27;3.20;99.90
53208;DHT22;39093;52.788;6.940;2024-02-26T02:29:55;3.20;99.90
53208;DHT22;39093;52.788;6.940;2024-02-26T02:32:22;3.20;99.90
53208;DHT22;39093;52.788;6.940;2024-02-26T02:34:51;3.20;99.90
53208;DHT22;39093;52.788;6.940;2024-02-26T02:37:18;3.20;99.90
53208;DHT22;39093;52.788;6.940;2024-02-26T02:39:45;3.30;99.90
53208;DHT22;39093;52.788;6.940;2024-02-26T02:42:12;3.20;99.90
53208;DHT22;39093;52.788;6.940;2024-02-26T02:44:39;3.20;99.90
53208;DHT22;39093;52.788;6.940;2024-02-26T02:47:06;3.20;99.90
53208;DHT22;39093;52.788;6.940;2024-02-26T02:49:33;3.20;99.90
53208;DHT22;39093;52.788;6.940;2024-02-26T02:52:00;3.20;99.90
53208;DHT22;39093;52.788;6.940;2024-02-26T02:54:27;3.20;99.90
53208;DHT22;39093;52.788;6.940;2024-02-26T02:56:54;3.20;99.90
53208;DHT22;39093;52.788;6.940;2024-02-26T02:59:21;3.20;99.90
53208;DHT22;39093;52.788;6.940;2024-02-26T03:01:48;3.20;99.90
53208;DHT22;39093;52.788;6.940;2024-02-26T03:04:16;3.20;99.90
53208;DHT22;39093;52.788;6.940;2024-02-26T03:06:43;3.20;99.90
53208;DHT22;39093;52.788;6.940;2024-02-26T03:09:10;3.20;99.90
53208;DHT22;39093;52.788;6.940;2024-02-26T03:11:37;3.20;99.90
53208;DHT22;39093;52.788;6.940;2024-02-26T03:14:04;3.40;99.90
53208;DHT22;39093;52.788;6.940;2024-02-26T03:16:32;3.20;99.90
53208;DHT22;39093;52.788;6.940;2024-02-26T03:18:59;3.20;99.90
53208;DHT22;39093;52.788;6.940;2024-02-26T03:21:27;3.60;99.90
53208;DHT22;39093;52.788;6.940;2024-02-26T03:23:54;3.50;99.90
53208;DHT22;39093;52.788;6.940;2024-02-26T03:26:21;3.30;99.90
53208;DHT22;39093;52.788;6.940;2024-02-26T03:28:48;3.30;99.90
53208;DHT22;39093;52.788;6.940;2024-02-26T03:31:15;3.30;99.90
53208;DHT22;39093;52.788;6.940;2024-02-26T03:33:42;3.20;99.90
53208;DHT22;39093;52.788;6.940;2024-02-26T03:36:09;3.30;99.90
53208;DHT22;39093;52.788;6.940;2024-02-26T03:38:37;3.30;99.90
53208;DHT22;39093;52.788;6.940;2024-02-26T03:41:04;3.30;99.90
53208;DHT22;39093;52.788;6.940;2024-02-26T03:43:31;3.30;99.90
53208;DHT22;39093;52.788;6.940;2024-02-26T03:45:58;3.40;99.90
53208;DHT22;39093;52.788;6.940;2024-02-26T03:48:25;3.40;99.90
53208;DHT22;39093;52.788;6.940;2024-02-26T03:50:52;3.30;99.90
53208;DHT22;39093;52.788;6.940;2024-02-26T03:53:19;3.30;99.90
53208;DHT22;39093;52.788;6.940;2024-02-26T03:55:46;3.30;99.90
53208;DHT22;39093;52.788;6.940;2024-02-26T03:58:13;3.40;99.90
53208;DHT22;39093;52.788;6.940;2024-02-26T04:00:42;3.40;99.90
53208;DHT22;39093;52.788;6.940;2024-02-26T04:03:09;3.40;99.90
53208;DHT22;39093;52.788;6.940;2024-02-26T04:05:36;3.40;99.90
53208;DHT22;39093;52.788;6.940;2024-02-26T04:08:04;3.40;99.90
53208;DHT22;39093;52.788;6.940;2024-02-26T04:10:31;3.40;99.90
53208;DHT22;39093;52.788;6.940;2024-02-26T04:12:58;3.50;99.90
53208;DHT22;39093;52.788;6.940;2024-02-26T04:15:25;3.40;99.90
53208;DHT22;39093;52.788;6.940;2024-02-26T04:17:51;3.40;99.90
53208;DHT22;39093;52.788;6.940;2024-02-26T04:20:18;3.40;99.90
53208;DHT22;39093;52.788;6.940;2024-02-26T04:22:45;3.40;99.90
53208;DHT22;39093;52.788;6.940;2024-02-26T04:25:12;3.40;99.90
53208;DHT22;39093;52.788;6.940;2024-02-26T04:27:39;3.50;99.90
53208;DHT22;39093;52.788;6.940;2024-02-26T04:30:07;3.50;99.90
53208;DHT22;39093;52.788;6.940;2024-02-26T04:32:35;3.50;99.90
53208;DHT22;39093;52.788;6.940;2024-02-26T04:35:05;3.50;99.90
53208;DHT22;39093;52.788;6.940;2024-02-26T04:37:32;3.50;99.90
53208;DHT22;39093;52.788;6.940;2024-02-26T04:39:59;3.30;99.90
53208;DHT22;39093;52.788;6.940;2024-02-26T04:42:27;3.50;99.90
53208;DHT22;39093;52.788;6.940;2024-02-26T04:44:57;3.50;99.90
53208;DHT22;39093;52.788;6.940;2024-02-26T04:47:24;3.50;99.90
53208;DHT22;39093;52.788;6.940;2024-02-26T04:49:51;3.50;99.90
53208;DHT22;39093;52.788;6.940;2024-02-26T04:52:20;3.50;99.90
53208;DHT22;39093;52.788;6.940;2024-02-26T04:54:47;3.60;99.90
53208;DHT22;39093;52.788;6.940;2024-02-26T04:57:13;3.50;99.90
53208;DHT22;39093;52.788;6.940;2024-02-26T04:59:40;3.50;99.90
53208;DHT22;39093;52.788;6.940;2024-02-26T05:02:09;3.60;99.90
53208;DHT22;39093;52.788;6.940;2024-02-26T05:04:36;3.60;99.90
53208;DHT22;39093;52.788;6.940;2024-02-26T05:07:04;3.60;99.90
53208;DHT22;39093;52.788;6.940;2024-02-26T05:09:31;3.60;99.90
53208;DHT22;39093;52.788;6.940;2024-02-26T05:11:58;3.60;99.90
53208;DHT22;39093;52.788;6.940;2024-02-26T05:14:25;3.70;99.90
53208;DHT22;39093;52.788;6.940;2024-02-26T05:16:52;3.70;99.90
53208;DHT22;39093;52.788;6.940;2024-02-26T05:19:19;3.60;99.90
53208;DHT22;39093;52.788;6.940;2024-02-26T05:21:46;3.70;99.90
53208;DHT22;39093;52.788;6.940;2024-02-26T05:24:16;3.70;99.90
53208;DHT22;39093;52.788;6.940;2024-02-26T05:26:45;3.70;99.90
53208;DHT22;39093;52.788;6.940;2024-02-26T05:29:12;3.70;99.90
53208;DHT22;39093;52.788;6.940;2024-02-26T05:31:39;3.70;99.90
53208;DHT22;39093;52.788;6.940;2024-02-26T05:34:06;3.70;99.90
53208;DHT22;39093;52.788;6.940;2024-02-26T05:36:33;3.80;99.90
53208;DHT22;39093;52.788;6.940;2024-02-26T05:39:01;3.80;99.90
53208;DHT22;39093;52.788;6.940;2024-02-26T05:41:28;3.80;99.90
53208;DHT22;39093;52.788;6.940;2024-02-26T05:43:55;3.90;99.90
53208;DHT22;39093;52.788;6.940;2024-02-26T05:46:22;3.70;99.90
53208;DHT22;39093;52.788;6.940;2024-02-26T05:48:51;3.70;99.90
53208;DHT22;39093;52.788;6.940;2024-02-26T05:51:18;3.80;99.90
53208;DHT22;39093;52.788;6.940;2024-02-26T05:53:46;3.80;99.90
53208;DHT22;39093;52.788;6.940;2024-02-26T05:56:24;3.70;99.90
53208;DHT22;39093;52.788;6.940;2024-02-26T05:58:51;3.70;99.90
53208;DHT22;39093;52.788;6.940;2024-02-26T06:01:19;3.70;99.90
53208;DHT22;39093;52.788;6.940;2024-02-26T06:03:46;3.70;99.90
53208;DHT22;39093;52.788;6.940;2024-02-26T06:06:13;3.70;99.90
53208;DHT22;39093;52.788;6.940;2024-02-26T06:08:42;3.70;99.90
53208;DHT22;39093;52.788;6.940;2024-02-26T06:11:09;3.70;99.90
53208;DHT22;39093;52.788;6.940;2024-02-26T06:13:36;3.70;99.90
53208;DHT22;39093;52.788;6.940;2024-02-26T06:16:04;3.80;99.90
53208;DHT22;39093;52.788;6.940;2024-02-26T06:18:31;3.70;99.90
53208;DHT22;39093;52.788;6.940;2024-02-26T06:20:58;3.70;99.90
53208;DHT22;39093;52.788;6.940;2024-02-26T06:23:26;3.70;99.90
53208;DHT22;39093;52.788;6.940;2024-02-26T06:25:53;3.70;99.90
53208;DHT22;39093;52.788;6.940;2024-02-26T06:28:20;3.70;99.90
53208;DHT22;39093;52.788;6.940;2024-02-26T06:30:47;3.70;99.90
53208;DHT22;39093;52.788;6.940;2024-02-26T06:33:14;3.80;99.90
53208;DHT22;39093;52.788;6.940;2024-02-26T06:35:41;3.70;99.90
53208;DHT22;39093;52.788;6.940;2024-02-26T06:38:08;3.80;99.90
53208;DHT22;39093;52.788;6.940;2024-02-26T06:40:36;3.70;99.90
53208;DHT22;39093;52.788;6.940;2024-02-26T06:43:04;3.90;99.90
53208;DHT22;39093;52.788;6.940;2024-02-26T06:45:30;3.70;99.90
53208;DHT22;39093;52.788;6.940;2024-02-26T06:47:58;3.80;99.90
53208;DHT22;39093;52.788;6.940;2024-02-26T06:50:25;3.80;99.90
53208;DHT22;39093;52.788;6.940;2024-02-26T06:52:52;3.80;99.90
53208;DHT22;39093;52.788;6.940;2024-02-26T06:55:19;3.80;99.90
53208;DHT22;39093;52.788;6.940;2024-02-26T06:57:46;3.80;99.90
53208;DHT22;39093;52.788;6.940;2024-02-26T07:00:13;3.80;99.90
53208;DHT22;39093;52.788;6.940;2024-02-26T07:02:43;3.80;99.90
53208;DHT22;39093;52.788;6.940;2024-02-26T07:05:10;3.90;99.90
53208;DHT22;39093;52.788;6.940;2024-02-26T07:07:37;3.90;99.90
53208;DHT22;39093;52.788;6.940;2024-02-26T07:10:05;3.80;99.90
53208;DHT22;39093;52.788;6.940;2024-02-26T07:12:33;3.90;99.90
53208;DHT22;39093;52.788;6.940;2024-02-26T07:15:00;3.90;99.90
53208;DHT22;39093;52.788;6.940;2024-02-26T07:17:28;3.90;99.90
53208;DHT22;39093;52.788;6.940;2024-02-26T07:19:55;3.90;99.90
53208;DHT22;39093;52.788;6.940;2024-02-26T07:22:22;3.90;99.90
53208;DHT22;39093;52.788;6.940;2024-02-26T07:24:50;3.90;99.90
53208;DHT22;39093;52.788;6.940;2024-02-26T07:27:18;4.20;99.90
53208;DHT22;39093;52.788;6.940;2024-02-26T07:29:45;4.00;99.90
53208;DHT22;39093;52.788;6.940;2024-02-26T07:32:13;4.00;99.90
53208;DHT22;39093;52.788;6.940;2024-02-26T07:34:41;4.00;99.90
53208;DHT22;39093;52.788;6.940;2024-02-26T07:37:11;4.00;99.90
53208;DHT22;39093;52.788;6.940;2024-02-26T07:39:39;4.00;99.90
53208;DHT22;39093;52.788;6.940;2024-02-26T07:42:06;4.00;99.90
53208;DHT22;39093;52.788;6.940;2024-02-26T07:44:33;4.00;99.90
53208;DHT22;39093;52.788;6.940;2024-02-26T07:47:00;4.00;99.90
53208;DHT22;39093;52.788;6.940;2024-02-26T07:49:27;4.30;99.90
53208;DHT22;39093;52.788;6.940;2024-02-26T07:51:54;4.10;99.90
53208;DHT22;39093;52.788;6.940;2024-02-26T07:54:24;4.10;99.90
53208;DHT22;39093;52.788;6.940;2024-02-26T07:56:51;4.10;99.90
53208;DHT22;39093;52.788;6.940;2024-02-26T07:59:19;4.10;99.90
53208;DHT22;39093;52.788;6.940;2024-02-26T08:01:52;4.10;99.90
53208;DHT22;39093;52.788;6.940;2024-02-26T08:04:24;4.10;99.90
53208;DHT22;39093;52.788;6.940;2024-02-26T08:06:53;4.10;99.90
53208;DHT22;39093;52.788;6.940;2024-02-26T08:09:20;4.10;99.90
53208;DHT22;39093;52.788;6.940;2024-02-26T08:11:47;4.10;99.90
53208;DHT22;39093;52.788;6.940;2024-02-26T08:14:14;4.10;99.90
53208;DHT22;39093;52.788;6.940;2024-02-26T08:16:41;4.20;99.90
53208;DHT22;39093;52.788;6.940;2024-02-26T08:19:08;4.20;99.90
53208;DHT22;39093;52.788;6.940;2024-02-26T08:21:37;4.30;99.90
53208;DHT22;39093;52.788;6.940;2024-02-26T08:24:04;4.20;99.90
53208;DHT22;39093;52.788;6.940;2024-02-26T08:26:31;4.20;99.90
53208;DHT22;39093;52.788;6.940;2024-02-26T08:28:58;4.20;99.90
53208;DHT22;39093;52.788;6.940;2024-02-26T08:31:25;4.30;99.90
53208;DHT22;39093;52.788;6.940;2024-02-26T08:33:53;4.20;99.90
53208;DHT22;39093;52.788;6.940;2024-02-26T08:36:21;4.20;99.90
53208;DHT22;39093;52.788;6.940;2024-02-26T08:38:48;4.30;99.90
53208;DHT22;39093;52.788;6.940;2024-02-26T08:41:15;4.30;99.90
53208;DHT22;39093;52.788;6.940;2024-02-26T08:43:42;4.30;99.90
53208;DHT22;39093;52.788;6.940;2024-02-26T08:46:09;4.30;99.90
53208;DHT22;39093;52.788;6.940;2024-02-26T08:48:37;4.30;99.90
53208;DHT22;39093;52.788;6.940;2024-02-26T08:51:09;4.30;99.90
53208;DHT22;39093;52.788;6.940;2024-02-26T08:53:36;4.30;99.90
53208;DHT22;39093;52.788;6.940;2024-02-26T08:56:10;4.30;99.90
53208;DHT22;39093;52.788;6.940;2024-02-26T08:58:44;4.40;99.90
53208;DHT22;39093;52.788;6.940;2024-02-26T09:01:11;4.40;99.90
53208;DHT22;39093;52.788;6.940;2024-02-26T09:03:38;4.40;99.90
53208;DHT22;39093;52.788;6.940;2024-02-26T09:06:06;4.40;99.90
53208;DHT22;39093;52.788;6.940;2024-02-26T09:08:33;4.60;99.90
53208;DHT22;39093;52.788;6.940;2024-02-26T09:11:03;4.40;99.90
53208;DHT22;39093;52.788;6.940;2024-02-26T09:13:30;4.40;99.90
53208;DHT22;39093;52.788;6.940;2024-02-26T09:15:57;4.50;99.90
53208;DHT22;39093;52.788;6.940;2024-02-26T09:18:25;4.50;99.90
53208;DHT22;39093;52.788;6.940;2024-02-26T09:20:52;4.50;99.90
53208;DHT22;39093;52.788;6.940;2024-02-26T09:23:19;4.50;99.90
53208;DHT22;39093;52.788;6.940;2024-02-26T09:25:46;4.50;99.90
53208;DHT22;39093;52.788;6.940;2024-02-26T09:28:13;4.50;99.90
53208;DHT22;39093;52.788;6.940;2024-02-26T09:30:44;4.50;99.90
53208;DHT22;39093;52.788;6.940;2024-02-26T09:33:11;4.50;99.90
53208;DHT22;39093;52.788;6.940;2024-02-26T09:35:38;4.50;99.90
53208;DHT22;39093;52.788;6.940;2024-02-26T09:38:05;4.60;99.90
53208;DHT22;39093;52.788;6.940;2024-02-26T09:40:34;4.60;99.90
53208;DHT22;39093;52.788;6.940;2024-02-26T09:43:05;5.00;99.90
53208;DHT22;39093;52.788;6.940;2024-02-26T09:45:34;4.70;99.90
53208;DHT22;39093;52.788;6.940;2024-02-26T09:48:02;4.70;99.90
53208;DHT22;39093;52.788;6.940;2024-02-26T09:50:31;4.70;99.90
53208;DHT22;39093;52.788;6.940;2024-02-26T09:52:59;4.70;99.90
53208;DHT22;39093;52.788;6.940;2024-02-26T09:55:29;4.70;99.90
53208;DHT22;39093;52.788;6.940;2024-02-26T09:57:57;4.80;99.90
53208;DHT22;39093;52.788;6.940;2024-02-26T10:00:27;4.70;99.90
53208;DHT22;39093;52.788;6.940;2024-02-26T10:03:03;4.80;99.90
53208;DHT22;39093;52.788;6.940;2024-02-26T10:05:33;4.80;99.90
53208;DHT22;39093;52.788;6.940;2024-02-26T10:08:01;4.80;99.90
53208;DHT22;39093;52.788;6.940;2024-02-26T10:10:29;4.90;99.90
53208;DHT22;39093;52.788;6.940;2024-02-26T10:12:56;4.90;99.90
53208;DHT22;39093;52.788;6.940;2024-02-26T10:15:23;4.90;99.90
53208;DHT22;39093;52.788;6.940;2024-02-26T10:17:50;5.00;99.90
53208;DHT22;39093;52.788;6.940;2024-02-26T10:20:17;5.00;99.90
53208;DHT22;39093;52.788;6.940;2024-02-26T10:22:46;5.00;99.90
53208;DHT22;39093;52.788;6.940;2024-02-26T10:25:13;5.10;99.90
53208;DHT22;39093;52.788;6.940;2024-02-26T10:27:41;5.10;99.90
53208;DHT22;39093;52.788;6.940;2024-02-26T10:30:20;5.10;99.90
53208;DHT22;39093;52.788;6.940;2024-02-26T10:32:52;5.20;99.90
53208;DHT22;39093;52.788;6.940;2024-02-26T10:35:19;5.20;99.90
53208;DHT22;39093;52.788;6.940;2024-02-26T10:37:50;5.20;99.90
53208;DHT22;39093;52.788;6.940;2024-02-26T10:40:17;5.30;99.90
53208;DHT22;39093;52.788;6.940;2024-02-26T10:42:44;5.30;99.90
53208;DHT22;39093;52.788;6.940;2024-02-26T10:45:14;5.30;99.90
53208;DHT22;39093;52.788;6.940;2024-02-26T10:47:41;5.30;99.90
53208;DHT22;39093;52.788;6.940;2024-02-26T10:50:09;5.40;99.90
53208;DHT22;39093;52.788;6.940;2024-02-26T10:52:37;5.30;99.90
53208;DHT22;39093;52.788;6.940;2024-02-26T10:55:05;5.30;99.90
53208;DHT22;39093;52.788;6.940;2024-02-26T10:57:40;5.40;99.90
53208;DHT22;39093;52.788;6.940;2024-02-26T11:00:08;5.40;99.90
53208;DHT22;39093;52.788;6.940;2024-02-26T11:02:40;5.50;99.90
53208;DHT22;39093;52.788;6.940;2024-02-26T11:05:08;5.60;99.90
53208;DHT22;39093;52.788;6.940;2024-02-26T11:07:35;5.50;99.90
53208;DHT22;39093;52.788;6.940;2024-02-26T11:10:04;5.50;99.90
53208;DHT22;39093;52.788;6.940;2024-02-26T11:12:33;5.50;99.90
53208;DHT22;39093;52.788;6.940;2024-02-26T11:15:04;5.50;99.90
53208;DHT22;39093;52.788;6.940;2024-02-26T11:17:32;5.60;99.90
53208;DHT22;39093;52.788;6.940;2024-02-26T11:20:01;5.70;99.90
53208;DHT22;39093;52.788;6.940;2024-02-26T11:22:32;5.60;99.90
53208;DHT22;39093;52.788;6.940;2024-02-26T11:25:00;5.70;99.90
53208;DHT22;39093;52.788;6.940;2024-02-26T11:27:32;5.80;99.90
53208;DHT22;39093;52.788;6.940;2024-02-26T11:30:01;5.90;99.90
53208;DHT22;39093;52.788;6.940;2024-02-26T11:32:30;6.00;99.90
53208;DHT22;39093;52.788;6.940;2024-02-26T11:35:01;6.20;99.90
53208;DHT22;39093;52.788;6.940;2024-02-26T11:37:28;6.20;99.90
53208;DHT22;39093;52.788;6.940;2024-02-26T11:39:55;6.20;99.90
53208;DHT22;39093;52.788;6.940;2024-02-26T11:42:25;6.30;99.90
53208;DHT22;39093;52.788;6.940;2024-02-26T11:44:52;6.40;99.90
53208;DHT22;39093;52.788;6.940;2024-02-26T11:47:22;6.40;99.90
53208;DHT22;39093;52.788;6.940;2024-02-26T11:49:49;6.40;99.90
53208;DHT22;39093;52.788;6.940;2024-02-26T11:52:16;6.50;99.90
53208;DHT22;39093;52.788;6.940;2024-02-26T11:54:48;6.50;99.90
53208;DHT22;39093;52.788;6.940;2024-02-26T11:57:38;6.50;99.90
53208;DHT22;39093;52.788;6.940;2024-02-26T12:00:15;6.40;99.90
53208;DHT22;39093;52.788;6.940;2024-02-26T12:02:46;6.40;99.90
53208;DHT22;39093;52.788;6.940;2024-02-26T12:08:09;6.40;99.90
53208;DHT22;39093;52.788;6.940;2024-02-26T12:10:36;6.50;99.90
53208;DHT22;39093;52.788;6.940;2024-02-26T12:13:14;6.40;99.90
53208;DHT22;39093;52.788;6.940;2024-02-26T12:15:55;6.40;99.90
53208;DHT22;39093;52.788;6.940;2024-02-26T12:18:23;6.40;99.90
53208;DHT22;39093;52.788;6.940;2024-02-26T12:23:30;6.40;99.90
53208;DHT22;39093;52.788;6.940;2024-02-26T12:26:00;6.40;99.90
53208;DHT22;39093;52.788;6.940;2024-02-26T12:28:31;6.40;99.90
53208;DHT22;39093;52.788;6.940;2024-02-26T12:30:58;6.40;99.90
53208;DHT22;39093;52.788;6.940;2024-02-26T12:33:27;6.40;99.90
53208;DHT22;39093;52.788;6.940;2024-02-26T12:35:56;6.40;99.90
53208;DHT22;39093;52.788;6.940;2024-02-26T12:38:24;6.30;99.90
53208;DHT22;39093;52.788;6.940;2024-02-26T12:40:51;6.30;99.90
53208;DHT22;39093;52.788;6.940;2024-02-26T12:43:18;6.20;99.90
53208;DHT22;39093;52.788;6.940;2024-02-26T12:45:45;6.40;99.90
53208;DHT22;39093;52.788;6.940;2024-02-26T12:48:14;6.20;99.90
53208;DHT22;39093;52.788;6.940;2024-02-26T12:50:45;6.20;99.90
53208;DHT22;39093;52.788;6.940;2024-02-26T12:53:14;6.20;99.90
53208;DHT22;39093;52.788;6.940;2024-02-26T12:55:41;6.10;99.90
53208;DHT22;39093;52.788;6.940;2024-02-26T12:58:09;6.30;99.90
53208;DHT22;39093;52.788;6.940;2024-02-26T13:00:36;6.20;99.90
53208;DHT22;39093;52.788;6.940;2024-02-26T13:03:03;6.00;99.90
53208;DHT22;39093;52.788;6.940;2024-02-26T13:05:31;6.00;99.90
53208;DHT22;39093;52.788;6.940;2024-02-26T13:07:58;6.00;99.90
53208;DHT22;39093;52.788;6.940;2024-02-26T13:10:25;6.00;99.90
53208;DHT22;39093;52.788;6.940;2024-02-26T13:12:52;6.00;99.90
53208;DHT22;39093;52.788;6.940;2024-02-26T13:15:21;6.00;99.90
53208;DHT22;39093;52.788;6.940;2024-02-26T13:17:49;6.10;99.90
53208;DHT22;39093;52.788;6.940;2024-02-26T13:20:29;6.00;99.90
53208;DHT22;39093;52.788;6.940;2024-02-26T13:23:05;6.10;99.90
53208;DHT22;39093;52.788;6.940;2024-02-26T13:25:34;6.10;99.90
53208;DHT22;39093;52.788;6.940;2024-02-26T13:28:18;6.10;99.90
53208;DHT22;39093;52.788;6.940;2024-02-26T13:30:53;6.10;99.90
53208;DHT22;39093;52.788;6.940;2024-02-26T13:33:21;6.20;99.90
53208;DHT22;39093;52.788;6.940;2024-02-26T13:35:50;6.20;99.90
53208;DHT22;39093;52.788;6.940;2024-02-26T13:38:17;6.30;99.90
53208;DHT22;39093;52.788;6.940;2024-02-26T13:40:44;6.20;99.90
53208;DHT22;39093;52.788;6.940;2024-02-26T13:43:11;6.20;99.90
53208;DHT22;39093;52.788;6.940;2024-02-26T13:45:38;6.20;99.90
53208;DHT22;39093;52.788;6.940;2024-02-26T13:48:08;6.20;99.90
53208;DHT22;39093;52.788;6.940;2024-02-26T13:50:38;6.20;99.90
53208;DHT22;39093;52.788;6.940;2024-02-26T13:53:05;6.20;99.90
53208;DHT22;39093;52.788;6.940;2024-02-26T13:55:32;6.20;99.90
53208;DHT22;39093;52.788;6.940;2024-02-26T13:57:59;6.10;99.90
53208;DHT22;39093;52.788;6.940;2024-02-26T14:00:30;6.20;99.90
53208;DHT22;39093;52.788;6.940;2024-02-26T14:03:01;6.00;99.90
53208;DHT22;39093;52.788;6.940;2024-02-26T14:05:29;6.00;99.90
53208;DHT22;39093;52.788;6.940;2024-02-26T14:07:57;6.10;99.90
53208;DHT22;39093;52.788;6.940;2024-02-26T14:10:24;5.80;99.90
53208;DHT22;39093;52.788;6.940;2024-02-26T14:12:51;6.00;99.90
53208;DHT22;39093;52.788;6.940;2024-02-26T14:15:18;6.00;99.90
53208;DHT22;39093;52.788;6.940;2024-02-26T14:17:45;6.10;99.90
53208;DHT22;39093;52.788;6.940;2024-02-26T14:20:23;6.00;99.90
53208;DHT22;39093;52.788;6.940;2024-02-26T14:22:51;6.00;99.90
53208;DHT22;39093;52.788;6.940;2024-02-26T14:25:20;5.90;99.90
53208;DHT22;39093;52.788;6.940;2024-02-26T14:27:48;5.90;99.90
53208;DHT22;39093;52.788;6.940;2024-02-26T14:30:15;5.90;99.90
53208;DHT22;39093;52.788;6.940;2024-02-26T14:32:42;5.80;99.90
53208;DHT22;39093;52.788;6.940;2024-02-26T14:35:10;5.90;99.90
53208;DHT22;39093;52.788;6.940;2024-02-26T14:37:43;5.80;99.90
53208;DHT22;39093;52.788;6.940;2024-02-26T14:40:14;5.80;99.90
53208;DHT22;39093;52.788;6.940;2024-02-26T14:42:42;5.70;99.90
53208;DHT22;39093;52.788;6.940;2024-02-26T14:45:09;5.80;99.90
53208;DHT22;39093;52.788;6.940;2024-02-26T14:47:38;5.70;99.90
53208;DHT22;39093;52.788;6.940;2024-02-26T14:50:06;5.70;99.90
53208;DHT22;39093;52.788;6.940;2024-02-26T14:52:33;5.70;99.90
53208;DHT22;39093;52.788;6.940;2024-02-26T14:55:00;5.70;99.90
53208;DHT22;39093;52.788;6.940;2024-02-26T14:57:27;5.60;99.90
53208;DHT22;39093;52.788;6.940;2024-02-26T14:59:54;5.60;99.90
53208;DHT22;39093;52.788;6.940;2024-02-26T15:02:21;5.60;99.90
53208;DHT22;39093;52.788;6.940;2024-02-26T15:04:48;5.60;99.90
53208;DHT22;39093;52.788;6.940;2024-02-26T15:07:15;5.60;99.90
53208;DHT22;39093;52.788;6.940;2024-02-26T15:09:43;5.60;99.90
53208;DHT22;39093;52.788;6.940;2024-02-26T15:12:10;5.60;99.90
53208;DHT22;39093;52.788;6.940;2024-02-26T15:14:37;5.60;99.90
53208;DHT22;39093;52.788;6.940;2024-02-26T15:17:05;5.60;99.90
53208;DHT22;39093;52.788;6.940;2024-02-26T15:19:37;5.50;99.90
53208;DHT22;39093;52.788;6.940;2024-02-26T15:22:04;5.50;99.90
53208;DHT22;39093;52.788;6.940;2024-02-26T15:24:31;5.50;99.90
53208;DHT22;39093;52.788;6.940;2024-02-26T15:26:58;5.50;99.90
53208;DHT22;39093;52.788;6.940;2024-02-26T15:29:25;5.70;99.90
53208;DHT22;39093;52.788;6.940;2024-02-26T15:31:53;5.50;99.90
53208;DHT22;39093;52.788;6.940;2024-02-26T15:34:20;5.50;99.90
53208;DHT22;39093;52.788;6.940;2024-02-26T15:36:47;5.50;99.90
53208;DHT22;39093;52.788;6.940;2024-02-26T15:39:14;5.50;99.90
53208;DHT22;39093;52.788;6.940;2024-02-26T15:41:41;5.50;99.90
53208;DHT22;39093;52.788;6.940;2024-02-26T15:44:08;5.40;99.90
53208;DHT22;39093;52.788;6.940;2024-02-26T15:46:39;5.50;99.90
53208;DHT22;39093;52.788;6.940;2024-02-26T15:49:07;5.40;99.90
53208;DHT22;39093;52.788;6.940;2024-02-26T15:51:38;5.50;99.90
53208;DHT22;39093;52.788;6.940;2024-02-26T15:54:05;5.40;99.90
53208;DHT22;39093;52.788;6.940;2024-02-26T15:56:32;5.40;99.90